Terminal Aerodrome Forecast
Issued by NWS

Home | Current Version | Previous Version | Text Only | Print | Product List | Glossary On
Versions: 1 2 3 4 5 6 7 8 9 10 11 12
000
FTUS43 KGRR 251746
TAFJXN
TAF
KJXN 251746Z 2518/2618 16010KT P6SM SCT040 SCT250
     FM252300 14008KT P6SM BKN040 BKN120
     FM260700 15011KT P6SM BKN120
     FM261300 16012G22KT P6SM BKN050=

USA.gov is the U.S. government's official web portal to all federal, state and local government web resources and services.